sensor_id;sensor_type;location;lat;lon;timestamp;P1;durP1;ratioP1;P2;durP2;ratioP2
70337;SDS011;57757;53.198;19.646;2023-11-21T00:00:16;18.90;;;8.40;;
70337;SDS011;57757;53.198;19.646;2023-11-21T00:03:04;19.80;;;9.00;;
70337;SDS011;57757;53.198;19.646;2023-11-21T00:05:32;19.90;;;9.00;;
70337;SDS011;57757;53.198;19.646;2023-11-21T00:08:00;21.90;;;10.10;;
70337;SDS011;57757;53.198;19.646;2023-11-21T00:10:27;20.10;;;9.00;;
70337;SDS011;57757;53.198;19.646;2023-11-21T00:12:56;21.40;;;9.60;;
70337;SDS011;57757;53.198;19.646;2023-11-21T00:15:23;23.50;;;9.40;;
70337;SDS011;57757;53.198;19.646;2023-11-21T00:17:51;20.60;;;9.60;;
70337;SDS011;57757;53.198;19.646;2023-11-21T00:20:18;18.40;;;9.40;;
70337;SDS011;57757;53.198;19.646;2023-11-21T00:22:47;21.50;;;9.50;;
70337;SDS011;57757;53.198;19.646;2023-11-21T00:25:15;19.30;;;8.90;;
70337;SDS011;57757;53.198;19.646;2023-11-21T00:27:44;30.10;;;13.00;;
70337;SDS011;57757;53.198;19.646;2023-11-21T00:30:12;32.90;;;15.20;;
70337;SDS011;57757;53.198;19.646;2023-11-21T00:32:40;29.40;;;12.40;;
70337;SDS011;57757;53.198;19.646;2023-11-21T00:35:09;26.60;;;12.60;;
70337;SDS011;57757;53.198;19.646;2023-11-21T00:37:37;24.20;;;11.50;;
70337;SDS011;57757;53.198;19.646;2023-11-21T00:40:07;28.90;;;12.70;;
70337;SDS011;57757;53.198;19.646;2023-11-21T00:42:35;30.60;;;12.40;;
70337;SDS011;57757;53.198;19.646;2023-11-21T00:45:03;30.40;;;13.40;;
70337;SDS011;57757;53.198;19.646;2023-11-21T00:47:31;26.70;;;11.80;;
70337;SDS011;57757;53.198;19.646;2023-11-21T00:49:59;25.50;;;11.50;;
70337;SDS011;57757;53.198;19.646;2023-11-21T00:52:26;29.00;;;11.60;;
70337;SDS011;57757;53.198;19.646;2023-11-21T00:54:54;26.80;;;11.90;;
70337;SDS011;57757;53.198;19.646;2023-11-21T00:57:22;29.10;;;12.10;;
70337;SDS011;57757;53.198;19.646;2023-11-21T00:59:50;25.50;;;11.80;;
70337;SDS011;57757;53.198;19.646;2023-11-21T01:02:17;24.40;;;10.80;;
70337;SDS011;57757;53.198;19.646;2023-11-21T01:04:45;24.90;;;10.80;;
70337;SDS011;57757;53.198;19.646;2023-11-21T01:07:13;23.90;;;10.40;;
70337;SDS011;57757;53.198;19.646;2023-11-21T01:09:40;37.00;;;13.40;;
70337;SDS011;57757;53.198;19.646;2023-11-21T01:12:08;33.90;;;14.00;;
70337;SDS011;57757;53.198;19.646;2023-11-21T01:14:36;27.60;;;11.20;;
70337;SDS011;57757;53.198;19.646;2023-11-21T01:17:04;39.50;;;15.10;;
70337;SDS011;57757;53.198;19.646;2023-11-21T01:19:32;26.40;;;11.70;;
70337;SDS011;57757;53.198;19.646;2023-11-21T01:22:00;32.80;;;12.20;;
70337;SDS011;57757;53.198;19.646;2023-11-21T01:24:28;30.30;;;11.70;;
70337;SDS011;57757;53.198;19.646;2023-11-21T01:26:57;28.80;;;11.80;;
70337;SDS011;57757;53.198;19.646;2023-11-21T01:29:25;28.30;;;12.30;;
70337;SDS011;57757;53.198;19.646;2023-11-21T01:31:52;28.70;;;11.30;;
70337;SDS011;57757;53.198;19.646;2023-11-21T01:34:20;29.20;;;12.30;;
70337;SDS011;57757;53.198;19.646;2023-11-21T01:36:48;28.10;;;11.30;;
70337;SDS011;57757;53.198;19.646;2023-11-21T01:39:16;25.00;;;11.70;;
70337;SDS011;57757;53.198;19.646;2023-11-21T01:41:51;22.50;;;9.80;;
70337;SDS011;57757;53.198;19.646;2023-11-21T01:44:19;25.70;;;10.80;;
70337;SDS011;57757;53.198;19.646;2023-11-21T01:46:47;24.30;;;10.80;;
70337;SDS011;57757;53.198;19.646;2023-11-21T01:49:15;29.50;;;11.20;;
70337;SDS011;57757;53.198;19.646;2023-11-21T01:51:45;24.30;;;10.80;;
70337;SDS011;57757;53.198;19.646;2023-11-21T01:54:16;23.20;;;9.70;;
70337;SDS011;57757;53.198;19.646;2023-11-21T01:56:45;22.90;;;8.70;;
70337;SDS011;57757;53.198;19.646;2023-11-21T01:59:15;26.90;;;10.30;;
70337;SDS011;57757;53.198;19.646;2023-11-21T02:01:48;29.50;;;11.20;;
70337;SDS011;57757;53.198;19.646;2023-11-21T02:04:17;24.60;;;10.90;;
70337;SDS011;57757;53.198;19.646;2023-11-21T02:06:46;27.10;;;10.60;;
70337;SDS011;57757;53.198;19.646;2023-11-21T02:09:14;24.30;;;10.50;;
70337;SDS011;57757;53.198;19.646;2023-11-21T02:11:43;25.30;;;12.40;;
70337;SDS011;57757;53.198;19.646;2023-11-21T02:14:11;23.50;;;10.40;;
70337;SDS011;57757;53.198;19.646;2023-11-21T02:16:41;26.40;;;10.50;;
70337;SDS011;57757;53.198;19.646;2023-11-21T02:19:08;23.10;;;10.30;;
70337;SDS011;57757;53.198;19.646;2023-11-21T02:21:41;25.40;;;10.40;;
70337;SDS011;57757;53.198;19.646;2023-11-21T02:24:12;23.10;;;9.40;;
70337;SDS011;57757;53.198;19.646;2023-11-21T02:26:40;21.90;;;9.40;;
70337;SDS011;57757;53.198;19.646;2023-11-21T02:29:08;23.00;;;9.60;;
70337;SDS011;57757;53.198;19.646;2023-11-21T02:31:39;20.60;;;9.10;;
70337;SDS011;57757;53.198;19.646;2023-11-21T02:34:15;23.10;;;8.80;;
70337;SDS011;57757;53.198;19.646;2023-11-21T02:36:44;22.30;;;9.60;;
70337;SDS011;57757;53.198;19.646;2023-11-21T02:39:12;21.30;;;9.10;;
70337;SDS011;57757;53.198;19.646;2023-11-21T02:41:41;22.70;;;9.10;;
70337;SDS011;57757;53.198;19.646;2023-11-21T02:44:09;22.30;;;8.70;;
70337;SDS011;57757;53.198;19.646;2023-11-21T02:46:37;22.70;;;9.80;;
70337;SDS011;57757;53.198;19.646;2023-11-21T02:49:06;24.10;;;8.40;;
70337;SDS011;57757;53.198;19.646;2023-11-21T02:51:34;23.30;;;8.90;;
70337;SDS011;57757;53.198;19.646;2023-11-21T02:54:02;20.10;;;8.60;;
70337;SDS011;57757;53.198;19.646;2023-11-21T02:56:31;21.40;;;9.00;;
70337;SDS011;57757;53.198;19.646;2023-11-21T02:58:59;22.40;;;8.00;;
70337;SDS011;57757;53.198;19.646;2023-11-21T03:01:27;19.40;;;7.40;;
70337;SDS011;57757;53.198;19.646;2023-11-21T03:03:55;20.60;;;8.10;;
70337;SDS011;57757;53.198;19.646;2023-11-21T03:06:24;17.60;;;7.70;;
70337;SDS011;57757;53.198;19.646;2023-11-21T03:08:52;19.50;;;7.90;;
70337;SDS011;57757;53.198;19.646;2023-11-21T03:11:19;20.50;;;7.60;;
70337;SDS011;57757;53.198;19.646;2023-11-21T03:13:47;16.90;;;7.40;;
70337;SDS011;57757;53.198;19.646;2023-11-21T03:16:15;17.70;;;7.40;;
70337;SDS011;57757;53.198;19.646;2023-11-21T03:18:43;19.80;;;7.80;;
70337;SDS011;57757;53.198;19.646;2023-11-21T03:21:12;22.00;;;8.40;;
70337;SDS011;57757;53.198;19.646;2023-11-21T03:23:40;18.10;;;7.70;;
70337;SDS011;57757;53.198;19.646;2023-11-21T03:26:11;17.50;;;7.00;;
70337;SDS011;57757;53.198;19.646;2023-11-21T03:28:40;16.80;;;6.70;;
70337;SDS011;57757;53.198;19.646;2023-11-21T03:31:08;18.60;;;7.60;;
70337;SDS011;57757;53.198;19.646;2023-11-21T03:33:36;17.50;;;6.90;;
70337;SDS011;57757;53.198;19.646;2023-11-21T03:36:04;16.40;;;7.20;;
70337;SDS011;57757;53.198;19.646;2023-11-21T03:38:32;20.10;;;8.00;;
70337;SDS011;57757;53.198;19.646;2023-11-21T03:40:59;16.70;;;7.10;;
70337;SDS011;57757;53.198;19.646;2023-11-21T03:43:27;20.80;;;8.00;;
70337;SDS011;57757;53.198;19.646;2023-11-21T03:45:54;19.40;;;7.60;;
70337;SDS011;57757;53.198;19.646;2023-11-21T03:48:22;19.50;;;7.40;;
70337;SDS011;57757;53.198;19.646;2023-11-21T03:50:50;20.00;;;7.80;;
70337;SDS011;57757;53.198;19.646;2023-11-21T03:53:17;23.50;;;7.60;;
70337;SDS011;57757;53.198;19.646;2023-11-21T03:55:45;19.60;;;7.50;;
70337;SDS011;57757;53.198;19.646;2023-11-21T03:58:13;18.80;;;6.80;;
70337;SDS011;57757;53.198;19.646;2023-11-21T04:00:40;21.70;;;8.20;;
70337;SDS011;57757;53.198;19.646;2023-11-21T04:03:08;21.40;;;8.40;;
70337;SDS011;57757;53.198;19.646;2023-11-21T04:05:36;18.20;;;7.40;;
70337;SDS011;57757;53.198;19.646;2023-11-21T04:08:04;18.30;;;7.40;;
70337;SDS011;57757;53.198;19.646;2023-11-21T04:10:32;20.60;;;7.90;;
70337;SDS011;57757;53.198;19.646;2023-11-21T04:13:00;18.30;;;8.00;;
70337;SDS011;57757;53.198;19.646;2023-11-21T04:15:27;18.10;;;7.10;;
70337;SDS011;57757;53.198;19.646;2023-11-21T04:17:55;20.50;;;7.70;;
70337;SDS011;57757;53.198;19.646;2023-11-21T04:20:24;17.30;;;7.40;;
70337;SDS011;57757;53.198;19.646;2023-11-21T04:22:52;18.20;;;7.80;;
70337;SDS011;57757;53.198;19.646;2023-11-21T04:25:19;19.30;;;7.40;;
70337;SDS011;57757;53.198;19.646;2023-11-21T04:27:47;19.20;;;8.30;;
70337;SDS011;57757;53.198;19.646;2023-11-21T04:30:16;17.50;;;6.90;;
70337;SDS011;57757;53.198;19.646;2023-11-21T04:32:43;20.50;;;7.80;;
70337;SDS011;57757;53.198;19.646;2023-11-21T04:35:11;16.90;;;6.80;;
70337;SDS011;57757;53.198;19.646;2023-11-21T04:37:40;20.60;;;8.10;;
70337;SDS011;57757;53.198;19.646;2023-11-21T04:40:08;19.00;;;7.40;;
70337;SDS011;57757;53.198;19.646;2023-11-21T04:42:36;17.00;;;6.80;;
70337;SDS011;57757;53.198;19.646;2023-11-21T04:45:05;18.60;;;7.00;;
70337;SDS011;57757;53.198;19.646;2023-11-21T04:47:37;17.10;;;6.80;;
70337;SDS011;57757;53.198;19.646;2023-11-21T04:50:05;18.60;;;7.20;;
70337;SDS011;57757;53.198;19.646;2023-11-21T04:52:33;17.20;;;6.80;;
70337;SDS011;57757;53.198;19.646;2023-11-21T04:55:01;16.50;;;7.10;;
70337;SDS011;57757;53.198;19.646;2023-11-21T04:57:29;17.00;;;6.70;;
70337;SDS011;57757;53.198;19.646;2023-11-21T04:59:58;17.50;;;7.00;;
70337;SDS011;57757;53.198;19.646;2023-11-21T05:02:25;20.10;;;7.70;;
70337;SDS011;57757;53.198;19.646;2023-11-21T05:05:02;23.00;;;9.00;;
70337;SDS011;57757;53.198;19.646;2023-11-21T05:07:32;25.30;;;11.00;;
70337;SDS011;57757;53.198;19.646;2023-11-21T05:09:59;19.50;;;8.20;;
70337;SDS011;57757;53.198;19.646;2023-11-21T05:12:30;19.00;;;8.20;;
70337;SDS011;57757;53.198;19.646;2023-11-21T05:15:05;23.70;;;9.40;;
70337;SDS011;57757;53.198;19.646;2023-11-21T05:17:42;21.00;;;8.80;;
70337;SDS011;57757;53.198;19.646;2023-11-21T05:20:29;36.30;;;13.40;;
70337;SDS011;57757;53.198;19.646;2023-11-21T05:22:56;58.10;;;21.00;;
70337;SDS011;57757;53.198;19.646;2023-11-21T05:25:26;31.40;;;12.40;;
70337;SDS011;57757;53.198;19.646;2023-11-21T05:27:54;31.20;;;13.20;;
70337;SDS011;57757;53.198;19.646;2023-11-21T05:30:22;26.00;;;11.60;;
70337;SDS011;57757;53.198;19.646;2023-11-21T05:32:49;33.50;;;13.50;;
70337;SDS011;57757;53.198;19.646;2023-11-21T05:35:17;36.40;;;15.90;;
70337;SDS011;57757;53.198;19.646;2023-11-21T05:37:45;26.00;;;11.20;;
70337;SDS011;57757;53.198;19.646;2023-11-21T05:40:14;28.20;;;11.90;;
70337;SDS011;57757;53.198;19.646;2023-11-21T05:42:42;24.20;;;10.40;;
70337;SDS011;57757;53.198;19.646;2023-11-21T05:45:10;26.50;;;11.80;;
70337;SDS011;57757;53.198;19.646;2023-11-21T05:47:43;19.60;;;8.90;;
70337;SDS011;57757;53.198;19.646;2023-11-21T05:50:14;22.00;;;9.00;;
70337;SDS011;57757;53.198;19.646;2023-11-21T05:52:44;19.50;;;8.50;;
70337;SDS011;57757;53.198;19.646;2023-11-21T05:55:13;20.30;;;9.30;;
70337;SDS011;57757;53.198;19.646;2023-11-21T05:57:42;29.70;;;12.30;;
70337;SDS011;57757;53.198;19.646;2023-11-21T06:00:12;22.50;;;9.40;;
70337;SDS011;57757;53.198;19.646;2023-11-21T06:02:57;21.60;;;8.30;;
70337;SDS011;57757;53.198;19.646;2023-11-21T06:05:25;21.60;;;8.80;;
70337;SDS011;57757;53.198;19.646;2023-11-21T06:07:54;20.80;;;8.60;;
70337;SDS011;57757;53.198;19.646;2023-11-21T06:10:29;23.20;;;9.50;;
70337;SDS011;57757;53.198;19.646;2023-11-21T06:12:57;22.20;;;8.80;;
70337;SDS011;57757;53.198;19.646;2023-11-21T06:15:30;22.20;;;9.00;;
70337;SDS011;57757;53.198;19.646;2023-11-21T06:17:58;31.20;;;12.30;;
70337;SDS011;57757;53.198;19.646;2023-11-21T06:20:27;23.90;;;10.30;;
70337;SDS011;57757;53.198;19.646;2023-11-21T06:22:55;26.40;;;9.80;;
70337;SDS011;57757;53.198;19.646;2023-11-21T06:25:23;20.90;;;8.20;;
70337;SDS011;57757;53.198;19.646;2023-11-21T06:27:50;24.90;;;9.60;;
70337;SDS011;57757;53.198;19.646;2023-11-21T06:30:20;20.60;;;9.00;;
70337;SDS011;57757;53.198;19.646;2023-11-21T06:32:49;21.20;;;8.50;;
70337;SDS011;57757;53.198;19.646;2023-11-21T06:35:18;19.40;;;8.40;;
70337;SDS011;57757;53.198;19.646;2023-11-21T06:37:46;20.90;;;8.50;;
70337;SDS011;57757;53.198;19.646;2023-11-21T06:40:18;19.50;;;8.00;;
70337;SDS011;57757;53.198;19.646;2023-11-21T06:42:48;23.80;;;9.80;;
70337;SDS011;57757;53.198;19.646;2023-11-21T06:45:18;24.00;;;9.90;;
70337;SDS011;57757;53.198;19.646;2023-11-21T06:47:47;30.70;;;12.80;;
70337;SDS011;57757;53.198;19.646;2023-11-21T06:50:15;28.90;;;12.10;;
70337;SDS011;57757;53.198;19.646;2023-11-21T06:52:43;18.90;;;8.30;;
70337;SDS011;57757;53.198;19.646;2023-11-21T06:55:11;22.20;;;8.70;;
70337;SDS011;57757;53.198;19.646;2023-11-21T06:57:39;25.30;;;12.30;;
70337;SDS011;57757;53.198;19.646;2023-11-21T07:00:07;24.30;;;9.10;;
70337;SDS011;57757;53.198;19.646;2023-11-21T07:02:38;24.00;;;9.60;;
70337;SDS011;57757;53.198;19.646;2023-11-21T07:05:07;19.30;;;7.90;;
70337;SDS011;57757;53.198;19.646;2023-11-21T07:07:35;30.30;;;15.50;;
70337;SDS011;57757;53.198;19.646;2023-11-21T07:10:04;24.90;;;11.00;;
70337;SDS011;57757;53.198;19.646;2023-11-21T07:12:33;24.20;;;9.90;;
70337;SDS011;57757;53.198;19.646;2023-11-21T07:15:01;25.30;;;10.80;;
70337;SDS011;57757;53.198;19.646;2023-11-21T07:17:30;23.00;;;9.50;;
70337;SDS011;57757;53.198;19.646;2023-11-21T07:19:58;24.00;;;9.70;;
70337;SDS011;57757;53.198;19.646;2023-11-21T07:22:26;26.20;;;9.70;;
70337;SDS011;57757;53.198;19.646;2023-11-21T07:24:54;22.40;;;9.50;;
70337;SDS011;57757;53.198;19.646;2023-11-21T07:27:23;27.80;;;11.40;;
70337;SDS011;57757;53.198;19.646;2023-11-21T07:29:51;25.50;;;10.30;;
70337;SDS011;57757;53.198;19.646;2023-11-21T07:32:19;26.00;;;12.50;;
70337;SDS011;57757;53.198;19.646;2023-11-21T07:34:46;21.80;;;9.80;;
70337;SDS011;57757;53.198;19.646;2023-11-21T07:37:14;26.30;;;10.10;;
70337;SDS011;57757;53.198;19.646;2023-11-21T07:39:42;25.10;;;10.90;;
70337;SDS011;57757;53.198;19.646;2023-11-21T07:42:10;25.70;;;11.90;;
70337;SDS011;57757;53.198;19.646;2023-11-21T07:44:38;24.80;;;11.50;;
70337;SDS011;57757;53.198;19.646;2023-11-21T07:47:06;38.00;;;19.90;;
70337;SDS011;57757;53.198;19.646;2023-11-21T07:49:34;22.70;;;8.90;;
70337;SDS011;57757;53.198;19.646;2023-11-21T07:52:01;24.70;;;9.70;;
70337;SDS011;57757;53.198;19.646;2023-11-21T07:54:30;22.10;;;9.90;;
70337;SDS011;57757;53.198;19.646;2023-11-21T07:56:57;22.30;;;9.20;;
70337;SDS011;57757;53.198;19.646;2023-11-21T07:59:25;26.70;;;13.30;;
70337;SDS011;57757;53.198;19.646;2023-11-21T08:01:52;25.90;;;11.60;;
70337;SDS011;57757;53.198;19.646;2023-11-21T08:04:20;25.50;;;11.80;;
70337;SDS011;57757;53.198;19.646;2023-11-21T08:06:48;21.20;;;9.20;;
70337;SDS011;57757;53.198;19.646;2023-11-21T08:09:16;23.00;;;9.70;;
70337;SDS011;57757;53.198;19.646;2023-11-21T08:11:44;22.50;;;10.80;;
70337;SDS011;57757;53.198;19.646;2023-11-21T08:14:13;20.00;;;8.80;;
70337;SDS011;57757;53.198;19.646;2023-11-21T08:16:42;22.40;;;8.70;;
70337;SDS011;57757;53.198;19.646;2023-11-21T08:19:12;23.80;;;9.00;;
70337;SDS011;57757;53.198;19.646;2023-11-21T08:21:39;20.30;;;8.80;;
70337;SDS011;57757;53.198;19.646;2023-11-21T08:24:07;20.70;;;9.00;;
70337;SDS011;57757;53.198;19.646;2023-11-21T08:26:38;34.80;;;16.20;;
70337;SDS011;57757;53.198;19.646;2023-11-21T08:29:05;21.10;;;8.10;;
70337;SDS011;57757;53.198;19.646;2023-11-21T08:31:34;21.80;;;9.30;;
70337;SDS011;57757;53.198;19.646;2023-11-21T08:34:03;21.60;;;8.70;;
70337;SDS011;57757;53.198;19.646;2023-11-21T08:36:31;22.30;;;8.10;;
70337;SDS011;57757;53.198;19.646;2023-11-21T08:38:59;17.80;;;7.50;;
70337;SDS011;57757;53.198;19.646;2023-11-21T08:41:27;19.00;;;8.00;;
70337;SDS011;57757;53.198;19.646;2023-11-21T08:43:55;23.30;;;8.60;;
70337;SDS011;57757;53.198;19.646;2023-11-21T08:46:23;18.40;;;8.20;;
70337;SDS011;57757;53.198;19.646;2023-11-21T08:48:53;21.00;;;9.80;;
70337;SDS011;57757;53.198;19.646;2023-11-21T08:51:21;18.50;;;7.90;;
70337;SDS011;57757;53.198;19.646;2023-11-21T08:53:48;17.90;;;7.30;;
70337;SDS011;57757;53.198;19.646;2023-11-21T08:56:16;23.50;;;9.00;;
70337;SDS011;57757;53.198;19.646;2023-11-21T08:58:44;19.30;;;8.70;;
70337;SDS011;57757;53.198;19.646;2023-11-21T09:01:12;14.90;;;6.30;;
70337;SDS011;57757;53.198;19.646;2023-11-21T09:03:40;19.40;;;7.60;;
70337;SDS011;57757;53.198;19.646;2023-11-21T09:06:08;32.10;;;14.50;;
70337;SDS011;57757;53.198;19.646;2023-11-21T09:08:37;76.90;;;26.60;;
70337;SDS011;57757;53.198;19.646;2023-11-21T09:11:05;143.30;;;39.40;;
70337;SDS011;57757;53.198;19.646;2023-11-21T09:13:33;62.70;;;21.80;;
70337;SDS011;57757;53.198;19.646;2023-11-21T09:16:02;22.20;;;9.30;;
70337;SDS011;57757;53.198;19.646;2023-11-21T09:18:30;20.50;;;8.00;;
70337;SDS011;57757;53.198;19.646;2023-11-21T09:20:58;18.60;;;7.90;;
70337;SDS011;57757;53.198;19.646;2023-11-21T09:23:26;18.40;;;7.80;;
70337;SDS011;57757;53.198;19.646;2023-11-21T09:25:53;24.60;;;11.80;;
70337;SDS011;57757;53.198;19.646;2023-11-21T09:28:24;45.80;;;21.90;;
70337;SDS011;57757;53.198;19.646;2023-11-21T09:30:51;27.50;;;12.60;;
70337;SDS011;57757;53.198;19.646;2023-11-21T09:33:20;23.00;;;11.90;;
70337;SDS011;57757;53.198;19.646;2023-11-21T09:35:50;18.30;;;8.70;;
70337;SDS011;57757;53.198;19.646;2023-11-21T09:38:19;19.00;;;8.10;;
70337;SDS011;57757;53.198;19.646;2023-11-21T09:40:47;17.50;;;7.20;;
70337;SDS011;57757;53.198;19.646;2023-11-21T09:43:15;22.10;;;7.30;;
70337;SDS011;57757;53.198;19.646;2023-11-21T09:45:45;17.00;;;6.70;;
70337;SDS011;57757;53.198;19.646;2023-11-21T09:48:15;16.80;;;6.80;;
70337;SDS011;57757;53.198;19.646;2023-11-21T09:50:44;24.30;;;10.70;;
70337;SDS011;57757;53.198;19.646;2023-11-21T09:53:20;16.60;;;6.60;;
70337;SDS011;57757;53.198;19.646;2023-11-21T09:55:50;18.40;;;6.40;;
70337;SDS011;57757;53.198;19.646;2023-11-21T09:58:20;19.40;;;8.60;;
70337;SDS011;57757;53.198;19.646;2023-11-21T10:00:52;17.20;;;7.20;;
70337;SDS011;57757;53.198;19.646;2023-11-21T10:03:21;19.50;;;7.70;;
70337;SDS011;57757;53.198;19.646;2023-11-21T10:05:50;22.40;;;11.00;;
70337;SDS011;57757;53.198;19.646;2023-11-21T10:08:20;20.20;;;7.50;;
70337;SDS011;57757;53.198;19.646;2023-11-21T10:10:51;17.10;;;7.00;;
70337;SDS011;57757;53.198;19.646;2023-11-21T10:13:20;16.90;;;6.80;;
70337;SDS011;57757;53.198;19.646;2023-11-21T10:15:49;18.00;;;7.20;;
70337;SDS011;57757;53.198;19.646;2023-11-21T10:18:18;18.80;;;7.70;;
70337;SDS011;57757;53.198;19.646;2023-11-21T10:20:46;19.90;;;9.80;;
70337;SDS011;57757;53.198;19.646;2023-11-21T10:23:23;27.30;;;12.30;;
70337;SDS011;57757;53.198;19.646;2023-11-21T10:25:51;26.70;;;11.70;;
70337;SDS011;57757;53.198;19.646;2023-11-21T10:28:22;39.00;;;15.10;;
70337;SDS011;57757;53.198;19.646;2023-11-21T10:30:50;27.70;;;10.60;;
70337;SDS011;57757;53.198;19.646;2023-11-21T10:33:20;21.90;;;8.50;;
70337;SDS011;57757;53.198;19.646;2023-11-21T10:35:56;31.00;;;13.20;;
70337;SDS011;57757;53.198;19.646;2023-11-21T10:38:24;19.60;;;7.90;;
70337;SDS011;57757;53.198;19.646;2023-11-21T10:40:54;17.10;;;7.10;;
70337;SDS011;57757;53.198;19.646;2023-11-21T10:43:25;17.70;;;7.60;;
70337;SDS011;57757;53.198;19.646;2023-11-21T10:45:57;16.10;;;6.70;;
70337;SDS011;57757;53.198;19.646;2023-11-21T10:48:27;18.50;;;6.90;;
70337;SDS011;57757;53.198;19.646;2023-11-21T10:50:55;18.10;;;7.80;;
70337;SDS011;57757;53.198;19.646;2023-11-21T10:53:24;17.40;;;6.20;;
70337;SDS011;57757;53.198;19.646;2023-11-21T10:56:05;17.30;;;6.10;;
70337;SDS011;57757;53.198;19.646;2023-11-21T10:58:37;18.50;;;8.00;;
70337;SDS011;57757;53.198;19.646;2023-11-21T11:01:06;25.00;;;8.10;;
70337;SDS011;57757;53.198;19.646;2023-11-21T11:03:35;16.30;;;6.00;;
70337;SDS011;57757;53.198;19.646;2023-11-21T11:06:04;18.30;;;6.40;;
70337;SDS011;57757;53.198;19.646;2023-11-21T11:08:35;14.90;;;6.60;;
70337;SDS011;57757;53.198;19.646;2023-11-21T11:11:05;17.30;;;7.20;;
70337;SDS011;57757;53.198;19.646;2023-11-21T11:13:33;29.80;;;10.10;;
70337;SDS011;57757;53.198;19.646;2023-11-21T11:16:01;21.80;;;8.60;;
70337;SDS011;57757;53.198;19.646;2023-11-21T11:18:29;18.10;;;7.30;;
70337;SDS011;57757;53.198;19.646;2023-11-21T11:21:08;17.30;;;7.60;;
70337;SDS011;57757;53.198;19.646;2023-11-21T11:35:10;17.40;;;5.80;;
70337;SDS011;57757;53.198;19.646;2023-11-21T11:37:45;15.70;;;6.20;;
70337;SDS011;57757;53.198;19.646;2023-11-21T11:40:12;17.40;;;8.50;;
70337;SDS011;57757;53.198;19.646;2023-11-21T11:42:54;68.20;;;30.50;;
70337;SDS011;57757;53.198;19.646;2023-11-21T11:45:25;55.00;;;23.70;;
70337;SDS011;57757;53.198;19.646;2023-11-21T11:48:01;32.10;;;14.00;;
70337;SDS011;57757;53.198;19.646;2023-11-21T11:50:31;50.40;;;25.50;;
70337;SDS011;57757;53.198;19.646;2023-11-21T11:55:43;21.40;;;12.40;;
70337;SDS011;57757;53.198;19.646;2023-11-21T11:58:11;14.90;;;7.30;;
70337;SDS011;57757;53.198;19.646;2023-11-21T12:00:39;15.50;;;7.40;;
70337;SDS011;57757;53.198;19.646;2023-11-21T12:03:08;13.20;;;6.00;;
70337;SDS011;57757;53.198;19.646;2023-11-21T12:05:37;17.20;;;6.50;;
70337;SDS011;57757;53.198;19.646;2023-11-21T12:08:10;13.10;;;5.90;;
70337;SDS011;57757;53.198;19.646;2023-11-21T12:10:38;13.80;;;5.90;;
70337;SDS011;57757;53.198;19.646;2023-11-21T12:13:10;15.60;;;6.60;;
70337;SDS011;57757;53.198;19.646;2023-11-21T12:15:40;22.30;;;14.30;;
70337;SDS011;57757;53.198;19.646;2023-11-21T12:18:09;13.00;;;6.20;;
70337;SDS011;57757;53.198;19.646;2023-11-21T12:20:37;14.30;;;6.00;;
70337;SDS011;57757;53.198;19.646;2023-11-21T12:23:08;16.10;;;6.60;;
70337;SDS011;57757;53.198;19.646;2023-11-21T12:25:37;13.10;;;5.20;;
70337;SDS011;57757;53.198;19.646;2023-11-21T12:28:08;11.50;;;4.20;;
70337;SDS011;57757;53.198;19.646;2023-11-21T12:30:36;12.90;;;5.10;;
70337;SDS011;57757;53.198;19.646;2023-11-21T12:33:06;10.60;;;4.30;;
70337;SDS011;57757;53.198;19.646;2023-11-21T12:35:37;11.00;;;3.90;;
70337;SDS011;57757;53.198;19.646;2023-11-21T12:38:06;10.70;;;4.30;;
70337;SDS011;57757;53.198;19.646;2023-11-21T12:40:36;11.30;;;4.50;;
70337;SDS011;57757;53.198;19.646;2023-11-21T12:43:04;12.50;;;6.10;;
70337;SDS011;57757;53.198;19.646;2023-11-21T12:45:32;15.50;;;7.80;;
70337;SDS011;57757;53.198;19.646;2023-11-21T12:48:02;18.50;;;8.40;;
70337;SDS011;57757;53.198;19.646;2023-11-21T12:50:36;16.10;;;7.20;;
70337;SDS011;57757;53.198;19.646;2023-11-21T12:53:12;22.10;;;8.80;;
70337;SDS011;57757;53.198;19.646;2023-11-21T12:55:40;26.70;;;11.00;;
70337;SDS011;57757;53.198;19.646;2023-11-21T12:58:09;53.30;;;18.10;;
70337;SDS011;57757;53.198;19.646;2023-11-21T13:00:42;15.40;;;6.10;;
70337;SDS011;57757;53.198;19.646;2023-11-21T13:03:12;52.90;;;18.30;;
70337;SDS011;57757;53.198;19.646;2023-11-21T13:05:46;21.90;;;9.20;;
70337;SDS011;57757;53.198;19.646;2023-11-21T13:08:20;24.30;;;8.00;;
70337;SDS011;57757;53.198;19.646;2023-11-21T13:10:54;17.50;;;6.70;;
70337;SDS011;57757;53.198;19.646;2023-11-21T13:13:25;21.90;;;8.50;;
70337;SDS011;57757;53.198;19.646;2023-11-21T13:15:58;13.70;;;6.30;;
70337;SDS011;57757;53.198;19.646;2023-11-21T13:18:35;18.00;;;7.60;;
70337;SDS011;57757;53.198;19.646;2023-11-21T13:21:05;14.80;;;6.80;;
70337;SDS011;57757;53.198;19.646;2023-11-21T13:23:42;16.20;;;7.50;;
70337;SDS011;57757;53.198;19.646;2023-11-21T13:26:10;16.50;;;6.70;;
70337;SDS011;57757;53.198;19.646;2023-11-21T13:28:38;16.40;;;6.40;;
70337;SDS011;57757;53.198;19.646;2023-11-21T13:31:08;11.20;;;4.30;;
70337;SDS011;57757;53.198;19.646;2023-11-21T13:33:38;10.70;;;4.80;;
70337;SDS011;57757;53.198;19.646;2023-11-21T13:36:08;11.70;;;5.20;;
70337;SDS011;57757;53.198;19.646;2023-11-21T13:38:38;10.60;;;4.30;;
70337;SDS011;57757;53.198;19.646;2023-11-21T13:41:10;10.20;;;3.70;;
70337;SDS011;57757;53.198;19.646;2023-11-21T13:43:41;11.10;;;4.20;;
70337;SDS011;57757;53.198;19.646;2023-11-21T13:46:12;11.70;;;4.40;;
70337;SDS011;57757;53.198;19.646;2023-11-21T13:48:49;9.30;;;3.80;;
70337;SDS011;57757;53.198;19.646;2023-11-21T13:51:24;9.80;;;3.70;;
70337;SDS011;57757;53.198;19.646;2023-11-21T13:54:06;13.20;;;6.10;;
70337;SDS011;57757;53.198;19.646;2023-11-21T13:56:37;14.20;;;6.80;;
70337;SDS011;57757;53.198;19.646;2023-11-21T13:59:07;11.00;;;4.10;;
70337;SDS011;57757;53.198;19.646;2023-11-21T14:01:51;10.00;;;3.90;;
70337;SDS011;57757;53.198;19.646;2023-11-21T14:04:27;10.20;;;4.40;;
70337;SDS011;57757;53.198;19.646;2023-11-21T14:06:59;12.50;;;6.10;;
70337;SDS011;57757;53.198;19.646;2023-11-21T14:09:29;12.20;;;5.20;;
70337;SDS011;57757;53.198;19.646;2023-11-21T14:12:11;12.30;;;4.60;;
70337;SDS011;57757;53.198;19.646;2023-11-21T14:14:41;16.30;;;6.00;;
70337;SDS011;57757;53.198;19.646;2023-11-21T14:17:09;20.80;;;10.70;;
70337;SDS011;57757;53.198;19.646;2023-11-21T14:19:39;26.50;;;15.80;;
70337;SDS011;57757;53.198;19.646;2023-11-21T14:22:11;17.90;;;11.90;;
70337;SDS011;57757;53.198;19.646;2023-11-21T14:24:40;13.70;;;7.10;;
70337;SDS011;57757;53.198;19.646;2023-11-21T14:27:14;12.30;;;5.40;;
70337;SDS011;57757;53.198;19.646;2023-11-21T14:29:44;14.20;;;6.80;;
70337;SDS011;57757;53.198;19.646;2023-11-21T14:32:12;13.90;;;4.70;;
70337;SDS011;57757;53.198;19.646;2023-11-21T14:34:41;12.80;;;5.10;;
70337;SDS011;57757;53.198;19.646;2023-11-21T14:37:13;11.90;;;4.70;;
70337;SDS011;57757;53.198;19.646;2023-11-21T14:39:41;11.50;;;5.10;;
70337;SDS011;57757;53.198;19.646;2023-11-21T14:42:13;12.60;;;4.90;;
70337;SDS011;57757;53.198;19.646;2023-11-21T14:44:43;10.10;;;3.90;;